sensor_id;sensor_type;location;lat;lon;timestamp;temperature;humidity
36856;DHT22;22788;51.434;6.786;2023-04-08T00:00:59;9.40;99.90
36856;DHT22;22788;51.434;6.786;2023-04-08T00:03:25;9.40;99.90
36856;DHT22;22788;51.434;6.786;2023-04-08T00:05:50;9.40;99.90
36856;DHT22;22788;51.434;6.786;2023-04-08T00:08:16;9.40;99.90
36856;DHT22;22788;51.434;6.786;2023-04-08T00:10:42;9.40;99.90
36856;DHT22;22788;51.434;6.786;2023-04-08T00:13:07;9.40;99.90
36856;DHT22;22788;51.434;6.786;2023-04-08T00:15:35;9.40;99.90
36856;DHT22;22788;51.434;6.786;2023-04-08T00:18:01;9.40;99.90
36856;DHT22;22788;51.434;6.786;2023-04-08T00:20:26;9.50;99.90
36856;DHT22;22788;51.434;6.786;2023-04-08T00:22:52;9.40;99.90
36856;DHT22;22788;51.434;6.786;2023-04-08T00:25:18;9.40;99.90
36856;DHT22;22788;51.434;6.786;2023-04-08T00:27:43;9.50;99.90
36856;DHT22;22788;51.434;6.786;2023-04-08T00:30:09;9.50;99.90
36856;DHT22;22788;51.434;6.786;2023-04-08T00:32:36;9.50;99.90
36856;DHT22;22788;51.434;6.786;2023-04-08T00:35:02;9.50;99.90
36856;DHT22;22788;51.434;6.786;2023-04-08T00:37:28;9.50;99.90
36856;DHT22;22788;51.434;6.786;2023-04-08T00:39:54;9.50;99.90
36856;DHT22;22788;51.434;6.786;2023-04-08T00:42:19;9.40;99.90
36856;DHT22;22788;51.434;6.786;2023-04-08T00:44:45;9.50;99.90
36856;DHT22;22788;51.434;6.786;2023-04-08T00:47:11;9.40;99.90
36856;DHT22;22788;51.434;6.786;2023-04-08T00:49:38;9.40;99.90
36856;DHT22;22788;51.434;6.786;2023-04-08T00:52:04;9.40;99.90
36856;DHT22;22788;51.434;6.786;2023-04-08T00:54:30;9.40;99.90
36856;DHT22;22788;51.434;6.786;2023-04-08T00:56:56;9.30;99.90
36856;DHT22;22788;51.434;6.786;2023-04-08T00:59:21;9.40;99.90
36856;DHT22;22788;51.434;6.786;2023-04-08T01:01:53;9.30;99.90
36856;DHT22;22788;51.434;6.786;2023-04-08T01:04:26;9.30;99.90
36856;DHT22;22788;51.434;6.786;2023-04-08T01:07:00;9.30;99.90
36856;DHT22;22788;51.434;6.786;2023-04-08T01:09:30;9.30;99.90
36856;DHT22;22788;51.434;6.786;2023-04-08T01:11:58;9.20;99.90
36856;DHT22;22788;51.434;6.786;2023-04-08T01:14:27;9.20;99.90
36856;DHT22;22788;51.434;6.786;2023-04-08T01:16:54;9.30;99.90
36856;DHT22;22788;51.434;6.786;2023-04-08T01:19:28;9.20;99.90
36856;DHT22;22788;51.434;6.786;2023-04-08T01:22:06;9.20;99.90
36856;DHT22;22788;51.434;6.786;2023-04-08T01:24:38;9.20;99.90
36856;DHT22;22788;51.434;6.786;2023-04-08T01:27:06;9.20;99.90
36856;DHT22;22788;51.434;6.786;2023-04-08T01:29:35;9.30;99.90
36856;DHT22;22788;51.434;6.786;2023-04-08T01:32:02;9.30;99.90
36856;DHT22;22788;51.434;6.786;2023-04-08T01:34:28;9.30;99.90
36856;DHT22;22788;51.434;6.786;2023-04-08T01:36:55;9.30;99.90
36856;DHT22;22788;51.434;6.786;2023-04-08T01:39:21;9.30;99.90
36856;DHT22;22788;51.434;6.786;2023-04-08T01:41:48;9.30;99.90
36856;DHT22;22788;51.434;6.786;2023-04-08T01:44:16;9.30;99.90
36856;DHT22;22788;51.434;6.786;2023-04-08T01:46:43;9.40;99.90
36856;DHT22;22788;51.434;6.786;2023-04-08T01:49:09;9.40;99.90
36856;DHT22;22788;51.434;6.786;2023-04-08T01:51:36;9.40;99.90
36856;DHT22;22788;51.434;6.786;2023-04-08T01:54:02;9.40;99.90
36856;DHT22;22788;51.434;6.786;2023-04-08T01:56:28;9.40;99.90
36856;DHT22;22788;51.434;6.786;2023-04-08T01:58:57;9.40;99.90
36856;DHT22;22788;51.434;6.786;2023-04-08T02:01:27;9.30;99.90
36856;DHT22;22788;51.434;6.786;2023-04-08T02:03:54;9.40;99.90
36856;DHT22;22788;51.434;6.786;2023-04-08T02:06:21;9.40;99.90
36856;DHT22;22788;51.434;6.786;2023-04-08T02:08:47;9.30;99.90
36856;DHT22;22788;51.434;6.786;2023-04-08T02:11:13;9.40;99.90
36856;DHT22;22788;51.434;6.786;2023-04-08T02:13:39;9.40;99.90
36856;DHT22;22788;51.434;6.786;2023-04-08T02:16:10;9.40;99.90
36856;DHT22;22788;51.434;6.786;2023-04-08T02:18:39;9.40;99.90
36856;DHT22;22788;51.434;6.786;2023-04-08T02:21:10;9.30;99.90
36856;DHT22;22788;51.434;6.786;2023-04-08T02:23:38;9.30;99.90
36856;DHT22;22788;51.434;6.786;2023-04-08T02:26:07;9.30;99.90
36856;DHT22;22788;51.434;6.786;2023-04-08T02:28:38;9.20;99.90
36856;DHT22;22788;51.434;6.786;2023-04-08T02:31:05;9.20;99.90
36856;DHT22;22788;51.434;6.786;2023-04-08T02:33:33;9.20;99.90
36856;DHT22;22788;51.434;6.786;2023-04-08T02:36:01;9.20;99.90
36856;DHT22;22788;51.434;6.786;2023-04-08T02:38:27;9.20;99.90
36856;DHT22;22788;51.434;6.786;2023-04-08T02:40:53;9.30;99.90
36856;DHT22;22788;51.434;6.786;2023-04-08T02:43:18;9.30;99.90
36856;DHT22;22788;51.434;6.786;2023-04-08T02:45:44;9.30;99.90
36856;DHT22;22788;51.434;6.786;2023-04-08T02:48:10;9.30;99.90
36856;DHT22;22788;51.434;6.786;2023-04-08T02:50:36;9.30;99.90
36856;DHT22;22788;51.434;6.786;2023-04-08T02:53:03;9.30;99.90
36856;DHT22;22788;51.434;6.786;2023-04-08T02:55:29;9.40;99.90
36856;DHT22;22788;51.434;6.786;2023-04-08T02:57:55;9.30;99.90
36856;DHT22;22788;51.434;6.786;2023-04-08T03:00:20;9.30;99.90
36856;DHT22;22788;51.434;6.786;2023-04-08T03:02:46;9.30;99.90
36856;DHT22;22788;51.434;6.786;2023-04-08T03:05:12;9.30;99.90
36856;DHT22;22788;51.434;6.786;2023-04-08T03:07:38;9.30;99.90
36856;DHT22;22788;51.434;6.786;2023-04-08T03:10:06;9.30;99.90
36856;DHT22;22788;51.434;6.786;2023-04-08T03:12:32;9.30;99.90
36856;DHT22;22788;51.434;6.786;2023-04-08T03:14:58;9.20;99.90
36856;DHT22;22788;51.434;6.786;2023-04-08T03:17:23;9.20;99.90
36856;DHT22;22788;51.434;6.786;2023-04-08T03:19:49;9.20;99.90
36856;DHT22;22788;51.434;6.786;2023-04-08T03:22:14;9.20;99.90
36856;DHT22;22788;51.434;6.786;2023-04-08T03:24:40;9.20;99.90
36856;DHT22;22788;51.434;6.786;2023-04-08T03:27:07;9.20;99.90
36856;DHT22;22788;51.434;6.786;2023-04-08T03:29:33;9.20;99.90
36856;DHT22;22788;51.434;6.786;2023-04-08T03:31:58;9.40;99.90
36856;DHT22;22788;51.434;6.786;2023-04-08T03:34:24;9.20;99.90
36856;DHT22;22788;51.434;6.786;2023-04-08T03:36:49;9.20;99.90
36856;DHT22;22788;51.434;6.786;2023-04-08T03:39:15;9.20;99.90
36856;DHT22;22788;51.434;6.786;2023-04-08T03:41:41;9.20;99.90
36856;DHT22;22788;51.434;6.786;2023-04-08T03:44:08;9.20;99.90
36856;DHT22;22788;51.434;6.786;2023-04-08T03:46:33;9.20;99.90
36856;DHT22;22788;51.434;6.786;2023-04-08T03:48:59;9.20;99.90
36856;DHT22;22788;51.434;6.786;2023-04-08T03:51:25;9.20;99.90
36856;DHT22;22788;51.434;6.786;2023-04-08T03:53:50;9.20;99.90
36856;DHT22;22788;51.434;6.786;2023-04-08T03:56:16;9.20;99.90
36856;DHT22;22788;51.434;6.786;2023-04-08T03:58:41;9.20;99.90
36856;DHT22;22788;51.434;6.786;2023-04-08T04:01:09;9.10;99.90
36856;DHT22;22788;51.434;6.786;2023-04-08T04:03:34;9.10;99.90
36856;DHT22;22788;51.434;6.786;2023-04-08T04:06:00;9.10;99.90
36856;DHT22;22788;51.434;6.786;2023-04-08T04:08:25;9.10;99.90
36856;DHT22;22788;51.434;6.786;2023-04-08T04:10:51;9.20;99.90
36856;DHT22;22788;51.434;6.786;2023-04-08T04:13:17;9.10;99.90
36856;DHT22;22788;51.434;6.786;2023-04-08T04:15:42;9.10;99.90
36856;DHT22;22788;51.434;6.786;2023-04-08T04:18:09;9.10;99.90
36856;DHT22;22788;51.434;6.786;2023-04-08T04:20:38;9.10;99.90
36856;DHT22;22788;51.434;6.786;2023-04-08T04:23:04;9.10;99.90
36856;DHT22;22788;51.434;6.786;2023-04-08T04:25:29;9.10;99.90
36856;DHT22;22788;51.434;6.786;2023-04-08T04:27:55;9.10;99.90
36856;DHT22;22788;51.434;6.786;2023-04-08T04:30:21;9.10;99.90
36856;DHT22;22788;51.434;6.786;2023-04-08T04:32:46;9.10;99.90
36856;DHT22;22788;51.434;6.786;2023-04-08T04:35:15;9.10;99.90
36856;DHT22;22788;51.434;6.786;2023-04-08T04:37:40;9.00;99.90
36856;DHT22;22788;51.434;6.786;2023-04-08T04:40:07;8.90;99.90
36856;DHT22;22788;51.434;6.786;2023-04-08T04:42:32;8.90;99.90
36856;DHT22;22788;51.434;6.786;2023-04-08T04:44:58;8.90;99.90
36856;DHT22;22788;51.434;6.786;2023-04-08T04:47:24;8.90;99.90
36856;DHT22;22788;51.434;6.786;2023-04-08T04:49:50;9.00;99.90
36856;DHT22;22788;51.434;6.786;2023-04-08T04:52:17;9.00;99.90
36856;DHT22;22788;51.434;6.786;2023-04-08T04:54:42;8.90;99.90
36856;DHT22;22788;51.434;6.786;2023-04-08T04:57:08;8.90;99.90
36856;DHT22;22788;51.434;6.786;2023-04-08T04:59:34;8.90;99.90
36856;DHT22;22788;51.434;6.786;2023-04-08T05:01:59;8.90;99.90
36856;DHT22;22788;51.434;6.786;2023-04-08T05:04:25;9.00;99.90
36856;DHT22;22788;51.434;6.786;2023-04-08T05:06:51;9.00;99.90
36856;DHT22;22788;51.434;6.786;2023-04-08T05:09:18;9.00;99.90
36856;DHT22;22788;51.434;6.786;2023-04-08T05:11:43;8.90;99.90
36856;DHT22;22788;51.434;6.786;2023-04-08T05:14:09;8.90;99.90
36856;DHT22;22788;51.434;6.786;2023-04-08T05:16:35;8.90;99.90
36856;DHT22;22788;51.434;6.786;2023-04-08T05:19:00;8.90;99.90
36856;DHT22;22788;51.434;6.786;2023-04-08T05:21:26;8.80;99.90
36856;DHT22;22788;51.434;6.786;2023-04-08T05:23:51;8.90;99.90
36856;DHT22;22788;51.434;6.786;2023-04-08T05:26:18;8.80;99.90
36856;DHT22;22788;51.434;6.786;2023-04-08T05:28:44;8.80;99.90
36856;DHT22;22788;51.434;6.786;2023-04-08T05:31:10;8.70;99.90
36856;DHT22;22788;51.434;6.786;2023-04-08T05:33:35;9.00;99.90
36856;DHT22;22788;51.434;6.786;2023-04-08T05:36:01;8.70;99.90
36856;DHT22;22788;51.434;6.786;2023-04-08T05:38:26;8.60;99.90
36856;DHT22;22788;51.434;6.786;2023-04-08T05:40:52;8.50;99.90
36856;DHT22;22788;51.434;6.786;2023-04-08T05:43:19;8.60;99.90
36856;DHT22;22788;51.434;6.786;2023-04-08T05:45:45;8.70;99.90
36856;DHT22;22788;51.434;6.786;2023-04-08T05:48:10;8.70;99.90
36856;DHT22;22788;51.434;6.786;2023-04-08T05:50:36;8.60;99.90
36856;DHT22;22788;51.434;6.786;2023-04-08T05:53:02;8.70;99.90
36856;DHT22;22788;51.434;6.786;2023-04-08T05:55:29;8.80;99.90
36856;DHT22;22788;51.434;6.786;2023-04-08T05:57:56;8.80;99.90
36856;DHT22;22788;51.434;6.786;2023-04-08T06:00:25;8.80;99.90
36856;DHT22;22788;51.434;6.786;2023-04-08T06:02:53;8.90;99.90
36856;DHT22;22788;51.434;6.786;2023-04-08T06:05:20;8.90;99.90
36856;DHT22;22788;51.434;6.786;2023-04-08T06:07:46;8.80;99.90
36856;DHT22;22788;51.434;6.786;2023-04-08T06:10:11;8.90;99.90
36856;DHT22;22788;51.434;6.786;2023-04-08T06:12:37;8.90;99.90
36856;DHT22;22788;51.434;6.786;2023-04-08T06:15:03;8.90;99.90
36856;DHT22;22788;51.434;6.786;2023-04-08T06:17:30;8.90;99.90
36856;DHT22;22788;51.434;6.786;2023-04-08T06:19:56;8.80;99.90
36856;DHT22;22788;51.434;6.786;2023-04-08T06:22:21;8.80;99.90
36856;DHT22;22788;51.434;6.786;2023-04-08T06:24:47;8.70;99.90
36856;DHT22;22788;51.434;6.786;2023-04-08T06:27:13;8.70;99.90
36856;DHT22;22788;51.434;6.786;2023-04-08T06:29:38;8.70;99.90
36856;DHT22;22788;51.434;6.786;2023-04-08T06:32:04;8.70;99.90
36856;DHT22;22788;51.434;6.786;2023-04-08T06:34:31;8.60;99.90
36856;DHT22;22788;51.434;6.786;2023-04-08T06:36:57;8.60;99.90
36856;DHT22;22788;51.434;6.786;2023-04-08T06:39:23;8.60;99.90
36856;DHT22;22788;51.434;6.786;2023-04-08T06:41:48;8.70;99.90
36856;DHT22;22788;51.434;6.786;2023-04-08T06:44:14;8.60;99.90
36856;DHT22;22788;51.434;6.786;2023-04-08T06:46:40;8.70;99.90
36856;DHT22;22788;51.434;6.786;2023-04-08T06:49:05;8.60;99.90
36856;DHT22;22788;51.434;6.786;2023-04-08T06:51:32;8.60;99.90
36856;DHT22;22788;51.434;6.786;2023-04-08T06:53:58;8.70;99.90
36856;DHT22;22788;51.434;6.786;2023-04-08T06:56:24;8.70;99.90
36856;DHT22;22788;51.434;6.786;2023-04-08T06:58:49;8.80;99.90
36856;DHT22;22788;51.434;6.786;2023-04-08T07:01:15;8.70;99.90
36856;DHT22;22788;51.434;6.786;2023-04-08T07:03:43;8.70;99.90
36856;DHT22;22788;51.434;6.786;2023-04-08T07:06:09;8.70;99.90
36856;DHT22;22788;51.434;6.786;2023-04-08T07:08:36;8.70;99.90
36856;DHT22;22788;51.434;6.786;2023-04-08T07:11:01;8.60;99.90
36856;DHT22;22788;51.434;6.786;2023-04-08T07:13:27;8.60;99.90
36856;DHT22;22788;51.434;6.786;2023-04-08T07:15:53;8.40;99.90
36856;DHT22;22788;51.434;6.786;2023-04-08T07:18:19;8.50;99.90
36856;DHT22;22788;51.434;6.786;2023-04-08T07:21:00;8.40;99.90
36856;DHT22;22788;51.434;6.786;2023-04-08T07:23:26;8.40;99.90
36856;DHT22;22788;51.434;6.786;2023-04-08T07:25:53;8.40;99.90
36856;DHT22;22788;51.434;6.786;2023-04-08T07:28:18;8.60;99.90
36856;DHT22;22788;51.434;6.786;2023-04-08T07:30:44;8.40;99.90
36856;DHT22;22788;51.434;6.786;2023-04-08T07:33:10;8.30;99.90
36856;DHT22;22788;51.434;6.786;2023-04-08T07:35:35;8.30;99.90
36856;DHT22;22788;51.434;6.786;2023-04-08T07:38:02;8.30;99.90
36856;DHT22;22788;51.434;6.786;2023-04-08T07:40:28;8.30;99.90
36856;DHT22;22788;51.434;6.786;2023-04-08T07:42:55;8.30;99.90
36856;DHT22;22788;51.434;6.786;2023-04-08T07:45:21;8.20;99.90
36856;DHT22;22788;51.434;6.786;2023-04-08T07:47:46;8.20;99.90
36856;DHT22;22788;51.434;6.786;2023-04-08T07:50:12;8.30;99.90
36856;DHT22;22788;51.434;6.786;2023-04-08T07:52:38;8.30;99.90
36856;DHT22;22788;51.434;6.786;2023-04-08T07:55:04;8.20;99.90
36856;DHT22;22788;51.434;6.786;2023-04-08T07:57:30;8.30;99.90
36856;DHT22;22788;51.434;6.786;2023-04-08T07:59:58;8.20;99.90
36856;DHT22;22788;51.434;6.786;2023-04-08T08:02:23;8.30;99.90
36856;DHT22;22788;51.434;6.786;2023-04-08T08:04:49;8.20;99.90
36856;DHT22;22788;51.434;6.786;2023-04-08T08:07:15;8.10;99.90
36856;DHT22;22788;51.434;6.786;2023-04-08T08:09:40;8.00;99.90
36856;DHT22;22788;51.434;6.786;2023-04-08T08:12:06;8.00;99.90
36856;DHT22;22788;51.434;6.786;2023-04-08T08:14:31;8.00;99.90
36856;DHT22;22788;51.434;6.786;2023-04-08T08:16:58;8.00;99.90
36856;DHT22;22788;51.434;6.786;2023-04-08T08:19:24;8.10;99.90
36856;DHT22;22788;51.434;6.786;2023-04-08T08:21:50;8.20;99.90
36856;DHT22;22788;51.434;6.786;2023-04-08T08:24:15;8.20;99.90
36856;DHT22;22788;51.434;6.786;2023-04-08T08:26:41;8.20;99.90
36856;DHT22;22788;51.434;6.786;2023-04-08T08:29:07;8.10;99.90
36856;DHT22;22788;51.434;6.786;2023-04-08T08:31:33;8.10;99.90
36856;DHT22;22788;51.434;6.786;2023-04-08T08:34:00;8.20;99.90
36856;DHT22;22788;51.434;6.786;2023-04-08T08:36:25;8.10;99.90
36856;DHT22;22788;51.434;6.786;2023-04-08T08:38:51;8.20;99.90
36856;DHT22;22788;51.434;6.786;2023-04-08T08:41:16;8.40;99.90
36856;DHT22;22788;51.434;6.786;2023-04-08T08:43:42;8.40;99.90
36856;DHT22;22788;51.434;6.786;2023-04-08T08:46:09;8.40;99.90
36856;DHT22;22788;51.434;6.786;2023-04-08T08:48:36;8.40;99.90
36856;DHT22;22788;51.434;6.786;2023-04-08T08:51:07;8.50;99.90
36856;DHT22;22788;51.434;6.786;2023-04-08T08:53:32;8.60;99.90
36856;DHT22;22788;51.434;6.786;2023-04-08T08:55:59;8.50;99.90
36856;DHT22;22788;51.434;6.786;2023-04-08T08:58:25;8.50;99.90
36856;DHT22;22788;51.434;6.786;2023-04-08T09:00:51;8.50;99.90
36856;DHT22;22788;51.434;6.786;2023-04-08T09:03:18;8.60;99.90
36856;DHT22;22788;51.434;6.786;2023-04-08T09:05:48;8.60;99.90
36856;DHT22;22788;51.434;6.786;2023-04-08T09:08:26;8.60;99.90
36856;DHT22;22788;51.434;6.786;2023-04-08T09:10:51;8.60;99.90
36856;DHT22;22788;51.434;6.786;2023-04-08T09:13:17;8.70;99.90
36856;DHT22;22788;51.434;6.786;2023-04-08T09:16:00;8.70;99.90
36856;DHT22;22788;51.434;6.786;2023-04-08T09:18:26;8.70;99.90
36856;DHT22;22788;51.434;6.786;2023-04-08T09:20:52;8.80;99.90
36856;DHT22;22788;51.434;6.786;2023-04-08T09:23:18;8.80;99.90
36856;DHT22;22788;51.434;6.786;2023-04-08T09:25:45;8.80;99.90
36856;DHT22;22788;51.434;6.786;2023-04-08T09:28:18;8.80;99.90
36856;DHT22;22788;51.434;6.786;2023-04-08T09:30:43;8.80;99.90
36856;DHT22;22788;51.434;6.786;2023-04-08T09:33:09;8.80;99.90
36856;DHT22;22788;51.434;6.786;2023-04-08T09:35:35;9.00;99.90
36856;DHT22;22788;51.434;6.786;2023-04-08T09:38:00;8.90;99.90
36856;DHT22;22788;51.434;6.786;2023-04-08T09:40:26;8.90;99.90
36856;DHT22;22788;51.434;6.786;2023-04-08T09:42:55;8.90;99.90
36856;DHT22;22788;51.434;6.786;2023-04-08T09:45:25;8.90;99.90
36856;DHT22;22788;51.434;6.786;2023-04-08T09:47:55;8.80;99.90
36856;DHT22;22788;51.434;6.786;2023-04-08T09:50:25;8.90;99.90
36856;DHT22;22788;51.434;6.786;2023-04-08T09:52:56;8.90;99.90
36856;DHT22;22788;51.434;6.786;2023-04-08T09:55:27;9.50;99.90
36856;DHT22;22788;51.434;6.786;2023-04-08T09:57:58;9.10;99.90
36856;DHT22;22788;51.434;6.786;2023-04-08T10:00:31;9.10;99.90
36856;DHT22;22788;51.434;6.786;2023-04-08T10:03:09;9.10;99.90
36856;DHT22;22788;51.434;6.786;2023-04-08T10:05:36;9.10;99.90
36856;DHT22;22788;51.434;6.786;2023-04-08T10:08:02;9.10;99.90
36856;DHT22;22788;51.434;6.786;2023-04-08T10:10:28;9.20;99.90
36856;DHT22;22788;51.434;6.786;2023-04-08T10:12:55;9.20;99.90
36856;DHT22;22788;51.434;6.786;2023-04-08T10:15:22;9.30;99.90
36856;DHT22;22788;51.434;6.786;2023-04-08T10:17:48;9.40;99.90
36856;DHT22;22788;51.434;6.786;2023-04-08T10:20:41;9.40;99.90
36856;DHT22;22788;51.434;6.786;2023-04-08T10:23:10;9.40;99.90
36856;DHT22;22788;51.434;6.786;2023-04-08T10:25:37;9.40;99.90
36856;DHT22;22788;51.434;6.786;2023-04-08T10:28:23;9.40;99.90
36856;DHT22;22788;51.434;6.786;2023-04-08T10:30:50;9.50;99.90
36856;DHT22;22788;51.434;6.786;2023-04-08T10:33:17;9.50;99.90
36856;DHT22;22788;51.434;6.786;2023-04-08T10:35:47;9.60;99.90
36856;DHT22;22788;51.434;6.786;2023-04-08T10:38:13;9.60;99.90
36856;DHT22;22788;51.434;6.786;2023-04-08T10:40:40;9.60;99.90
36856;DHT22;22788;51.434;6.786;2023-04-08T10:43:06;9.70;99.90
36856;DHT22;22788;51.434;6.786;2023-04-08T10:45:33;9.70;99.90
36856;DHT22;22788;51.434;6.786;2023-04-08T10:48:13;9.70;99.90
36856;DHT22;22788;51.434;6.786;2023-04-08T10:50:40;9.70;99.90
36856;DHT22;22788;51.434;6.786;2023-04-08T10:53:05;9.60;99.90
36856;DHT22;22788;51.434;6.786;2023-04-08T10:55:31;9.70;99.90
36856;DHT22;22788;51.434;6.786;2023-04-08T10:58:04;9.70;99.90
36856;DHT22;22788;51.434;6.786;2023-04-08T11:00:35;9.70;99.90
36856;DHT22;22788;51.434;6.786;2023-04-08T11:03:02;9.70;99.90
36856;DHT22;22788;51.434;6.786;2023-04-08T11:05:28;9.70;99.90
36856;DHT22;22788;51.434;6.786;2023-04-08T11:07:53;9.70;99.90
36856;DHT22;22788;51.434;6.786;2023-04-08T11:10:19;9.70;99.90
36856;DHT22;22788;51.434;6.786;2023-04-08T11:12:45;9.60;99.90
36856;DHT22;22788;51.434;6.786;2023-04-08T11:15:12;9.60;99.90
36856;DHT22;22788;51.434;6.786;2023-04-08T11:17:39;9.60;99.90
36856;DHT22;22788;51.434;6.786;2023-04-08T11:20:07;9.50;99.90
36856;DHT22;22788;51.434;6.786;2023-04-08T11:22:33;9.50;99.90
36856;DHT22;22788;51.434;6.786;2023-04-08T11:25:00;9.60;99.90
36856;DHT22;22788;51.434;6.786;2023-04-08T11:27:26;9.60;99.90
36856;DHT22;22788;51.434;6.786;2023-04-08T11:29:52;9.60;99.90
36856;DHT22;22788;51.434;6.786;2023-04-08T11:32:20;9.60;99.90
36856;DHT22;22788;51.434;6.786;2023-04-08T11:34:47;9.60;99.90
36856;DHT22;22788;51.434;6.786;2023-04-08T11:37:13;9.60;99.90
36856;DHT22;22788;51.434;6.786;2023-04-08T11:39:41;9.70;99.90
36856;DHT22;22788;51.434;6.786;2023-04-08T11:42:07;9.70;99.90
36856;DHT22;22788;51.434;6.786;2023-04-08T11:44:33;9.70;99.90
36856;DHT22;22788;51.434;6.786;2023-04-08T11:46:58;9.70;99.90
36856;DHT22;22788;51.434;6.786;2023-04-08T11:49:24;9.70;99.90
36856;DHT22;22788;51.434;6.786;2023-04-08T11:51:55;9.70;99.90
36856;DHT22;22788;51.434;6.786;2023-04-08T11:54:28;9.80;99.90
36856;DHT22;22788;51.434;6.786;2023-04-08T11:56:53;9.80;99.90
36856;DHT22;22788;51.434;6.786;2023-04-08T11:59:19;9.80;99.90
36856;DHT22;22788;51.434;6.786;2023-04-08T12:01:44;9.80;99.90
36856;DHT22;22788;51.434;6.786;2023-04-08T12:04:10;9.80;99.90
36856;DHT22;22788;51.434;6.786;2023-04-08T12:06:36;9.80;99.90
36856;DHT22;22788;51.434;6.786;2023-04-08T12:09:03;9.90;99.90
36856;DHT22;22788;51.434;6.786;2023-04-08T12:11:28;9.90;99.90
36856;DHT22;22788;51.434;6.786;2023-04-08T12:13:54;10.00;99.90
36856;DHT22;22788;51.434;6.786;2023-04-08T12:16:19;10.00;99.90
36856;DHT22;22788;51.434;6.786;2023-04-08T12:18:45;10.00;99.90
36856;DHT22;22788;51.434;6.786;2023-04-08T12:21:11;10.10;99.90
36856;DHT22;22788;51.434;6.786;2023-04-08T12:23:37;10.10;99.90
36856;DHT22;22788;51.434;6.786;2023-04-08T12:26:04;10.20;99.90
36856;DHT22;22788;51.434;6.786;2023-04-08T12:28:30;10.20;99.90
36856;DHT22;22788;51.434;6.786;2023-04-08T12:30:55;10.30;99.90
36856;DHT22;22788;51.434;6.786;2023-04-08T12:33:21;10.30;99.90
36856;DHT22;22788;51.434;6.786;2023-04-08T12:35:47;10.30;99.90
36856;DHT22;22788;51.434;6.786;2023-04-08T12:38:12;10.30;99.90
36856;DHT22;22788;51.434;6.786;2023-04-08T12:40:38;10.30;99.90
36856;DHT22;22788;51.434;6.786;2023-04-08T12:43:05;10.30;99.90
36856;DHT22;22788;51.434;6.786;2023-04-08T12:45:30;10.40;99.90
36856;DHT22;22788;51.434;6.786;2023-04-08T12:47:56;10.50;99.90
36856;DHT22;22788;51.434;6.786;2023-04-08T12:50:21;10.60;99.90
36856;DHT22;22788;51.434;6.786;2023-04-08T12:52:47;10.60;99.90
36856;DHT22;22788;51.434;6.786;2023-04-08T12:55:13;10.50;99.90
36856;DHT22;22788;51.434;6.786;2023-04-08T12:57:38;10.50;99.90
36856;DHT22;22788;51.434;6.786;2023-04-08T13:00:07;10.50;99.90
36856;DHT22;22788;51.434;6.786;2023-04-08T13:02:33;10.50;99.90
36856;DHT22;22788;51.434;6.786;2023-04-08T13:04:58;10.60;99.90
36856;DHT22;22788;51.434;6.786;2023-04-08T13:07:24;10.50;99.90
36856;DHT22;22788;51.434;6.786;2023-04-08T13:09:49;10.50;99.90
36856;DHT22;22788;51.434;6.786;2023-04-08T13:12:15;10.50;99.90
36856;DHT22;22788;51.434;6.786;2023-04-08T13:14:41;10.50;99.90
36856;DHT22;22788;51.434;6.786;2023-04-08T13:17:08;10.50;99.90
36856;DHT22;22788;51.434;6.786;2023-04-08T13:19:33;10.50;99.90
36856;DHT22;22788;51.434;6.786;2023-04-08T13:21:59;10.40;99.90
36856;DHT22;22788;51.434;6.786;2023-04-08T13:24:24;10.50;99.90
36856;DHT22;22788;51.434;6.786;2023-04-08T13:26:50;10.50;99.90
36856;DHT22;22788;51.434;6.786;2023-04-08T13:29:16;10.50;99.90
36856;DHT22;22788;51.434;6.786;2023-04-08T13:31:41;10.50;99.90
36856;DHT22;22788;51.434;6.786;2023-04-08T13:34:08;10.60;99.90
36856;DHT22;22788;51.434;6.786;2023-04-08T13:36:34;10.60;99.90
36856;DHT22;22788;51.434;6.786;2023-04-08T13:38:59;10.60;99.90
36856;DHT22;22788;51.434;6.786;2023-04-08T13:41:25;10.60;99.90
36856;DHT22;22788;51.434;6.786;2023-04-08T13:43:51;10.60;99.90
36856;DHT22;22788;51.434;6.786;2023-04-08T13:46:16;10.60;99.90
36856;DHT22;22788;51.434;6.786;2023-04-08T13:48:42;10.60;99.90
36856;DHT22;22788;51.434;6.786;2023-04-08T13:51:09;10.60;99.90
36856;DHT22;22788;51.434;6.786;2023-04-08T13:53:34;10.60;99.90
36856;DHT22;22788;51.434;6.786;2023-04-08T13:56:00;10.60;99.90
36856;DHT22;22788;51.434;6.786;2023-04-08T13:58:25;10.60;99.90
36856;DHT22;22788;51.434;6.786;2023-04-08T14:00:51;10.60;99.90
36856;DHT22;22788;51.434;6.786;2023-04-08T14:03:17;10.70;99.90
36856;DHT22;22788;51.434;6.786;2023-04-08T14:05:42;10.70;99.90
36856;DHT22;22788;51.434;6.786;2023-04-08T14:08:09;10.70;99.90
36856;DHT22;22788;51.434;6.786;2023-04-08T14:10:35;10.60;99.90
36856;DHT22;22788;51.434;6.786;2023-04-08T14:13:01;10.70;99.90
36856;DHT22;22788;51.434;6.786;2023-04-08T14:15:26;10.70;99.90
36856;DHT22;22788;51.434;6.786;2023-04-08T14:17:52;10.70;99.90
36856;DHT22;22788;51.434;6.786;2023-04-08T14:20:18;10.80;99.90
36856;DHT22;22788;51.434;6.786;2023-04-08T14:22:43;10.80;99.90
36856;DHT22;22788;51.434;6.786;2023-04-08T14:25:10;10.70;99.90
36856;DHT22;22788;51.434;6.786;2023-04-08T14:27:36;10.80;99.90
36856;DHT22;22788;51.434;6.786;2023-04-08T14:30:01;10.80;99.90
36856;DHT22;22788;51.434;6.786;2023-04-08T14:32:27;10.80;99.90
36856;DHT22;22788;51.434;6.786;2023-04-08T14:34:53;10.80;99.90
36856;DHT22;22788;51.434;6.786;2023-04-08T14:37:18;10.90;99.90
36856;DHT22;22788;51.434;6.786;2023-04-08T14:39:44;10.80;99.90
36856;DHT22;22788;51.434;6.786;2023-04-08T14:42:11;10.90;99.90
36856;DHT22;22788;51.434;6.786;2023-04-08T14:44:36;10.90;99.90
36856;DHT22;22788;51.434;6.786;2023-04-08T14:47:02;10.90;99.90
36856;DHT22;22788;51.434;6.786;2023-04-08T14:49:28;10.90;99.90
36856;DHT22;22788;51.434;6.786;2023-04-08T14:51:53;10.80;99.90
36856;DHT22;22788;51.434;6.786;2023-04-08T14:54:19;10.80;99.90
36856;DHT22;22788;51.434;6.786;2023-04-08T14:56:44;10.80;99.90
36856;DHT22;22788;51.434;6.786;2023-04-08T14:59:11;10.80;99.90
36856;DHT22;22788;51.434;6.786;2023-04-08T15:01:37;10.80;99.90
36856;DHT22;22788;51.434;6.786;2023-04-08T15:04:03;10.80;99.90
36856;DHT22;22788;51.434;6.786;2023-04-08T15:06:28;10.80;99.90
36856;DHT22;22788;51.434;6.786;2023-04-08T15:08:54;10.80;99.90
36856;DHT22;22788;51.434;6.786;2023-04-08T15:11:19;10.80;99.90
36856;DHT22;22788;51.434;6.786;2023-04-08T15:13:45;10.70;99.90
36856;DHT22;22788;51.434;6.786;2023-04-08T15:16:12;10.80;99.90
36856;DHT22;22788;51.434;6.786;2023-04-08T15:18:38;10.70;99.90
36856;DHT22;22788;51.434;6.786;2023-04-08T15:21:04;10.80;99.90
36856;DHT22;22788;51.434;6.786;2023-04-08T15:23:30;10.80;99.90
36856;DHT22;22788;51.434;6.786;2023-04-08T15:25:55;10.80;99.90
36856;DHT22;22788;51.434;6.786;2023-04-08T15:28:21;10.80;99.90
36856;DHT22;22788;51.434;6.786;2023-04-08T15:30:48;10.80;99.90
36856;DHT22;22788;51.434;6.786;2023-04-08T15:33:15;10.80;99.90
36856;DHT22;22788;51.434;6.786;2023-04-08T15:35:44;10.80;99.90
36856;DHT22;22788;51.434;6.786;2023-04-08T15:38:10;10.80;99.90